• Bienvenue sur Pilotes Québec!
  • Bienvenue sur le site de Pilotes Québec, la nouvelle communauté des pilotes et aviateurs du Québec.
  • Calendrier des activités
  • sujets récents au forum...
  • Les nouvelles en bref...

Connexion


J'ai oublié mon mot de passe
Renvoyer l'e-mail de confirmation
 

Publicité

Vous aimeriez afficher une publicité pour joindre la communauté des pilotes professionnels et privé du Québec?  Cliquez ici pour en savoir plus!

Conditions actuelles

Click for Quebec, Quebec Forecast

METAR - Québec


2015/04/18 19:00
CYQB 181900Z 05004KT 20SM FEW030 BKN065 OVC080 07/M05 A2992 RMK SC1SC6AS1 SLP136

TAF - Québec


2015/04/18 18:42
TAF TAF CYQB 181738Z 1818/1918 07008KT P6SM FEW030 BKN120
FM182000 07009KT P6SM -SHRA BKN040 OVC080
FM190600 34010KT P6SM BKN030
FM190900 33010KT P6SM SKC
FM191200 33005KT P6SM SKC
RMK NXT FCST BY 190000Z